createdAt,value
2022-12-11T00:00:41.793Z,21.30
2022-12-11T00:03:15.643Z,18.97
2022-12-11T00:05:45.893Z,25.97
2022-12-11T00:08:15.778Z,18.13
2022-12-11T00:10:49.671Z,19.37
2022-12-11T00:13:17.734Z,19.67
2022-12-11T00:15:45.985Z,20.90
2022-12-11T00:18:15.293Z,22.00
2022-12-11T00:20:43.987Z,25.13
2022-12-11T00:23:12.092Z,22.50
2022-12-11T00:25:45.089Z,18.30
2022-12-11T00:28:13.619Z,19.70
2022-12-11T00:30:43.241Z,19.53
2022-12-11T00:33:12.849Z,22.27
2022-12-11T00:35:49.902Z,20.20
2022-12-11T00:42:41.482Z,20.87
2022-12-11T00:45:39.751Z,18.70
2022-12-11T00:48:28.071Z,18.80
2022-12-11T00:51:07.902Z,19.00
2022-12-11T00:53:36.315Z,21.13
2022-12-11T00:56:18.282Z,18.00
2022-12-11T00:58:57.802Z,20.07
2022-12-11T01:01:33.591Z,19.90
2022-12-11T01:04:53.568Z,21.40
2022-12-11T01:07:58.673Z,18.13
2022-12-11T01:11:11.105Z,22.40
2022-12-11T01:14:11.045Z,20.63
2022-12-11T01:17:23.947Z,20.83
2022-12-11T01:20:13.029Z,18.80
2022-12-11T01:23:10.618Z,20.77
2022-12-11T01:26:12.432Z,20.70
2022-12-11T01:29:13.242Z,20.80
2022-12-11T01:31:50.983Z,23.93
2022-12-11T01:34:38.819Z,21.47
2022-12-11T01:37:34.391Z,20.93
2022-12-11T01:43:31.186Z,23.40
2022-12-11T01:46:21.393Z,23.50
2022-12-11T01:52:28.696Z,19.03
2022-12-11T01:59:15.028Z,19.70
2022-12-11T02:02:21.200Z,19.17
2022-12-11T02:05:26.628Z,20.10
2022-12-11T02:08:18.090Z,21.13
2022-12-11T02:12:46.785Z,20.43
2022-12-11T02:15:47.532Z,20.87
2022-12-11T02:18:51.565Z,26.97
2022-12-11T02:25:21.977Z,24.33
2022-12-11T02:28:37.133Z,21.70
2022-12-11T02:34:38.153Z,22.47
2022-12-11T02:37:20.757Z,21.27
2022-12-11T02:40:13.278Z,22.03
2022-12-11T02:43:04.926Z,20.40
2022-12-11T02:45:57.394Z,21.87
2022-12-11T02:48:37.059Z,20.17
2022-12-11T02:51:07.623Z,18.40
2022-12-11T02:53:41.032Z,21.93
2022-12-11T02:56:14.599Z,18.77
2022-12-11T02:58:52.614Z,19.30
2022-12-11T03:01:24.068Z,15.77
2022-12-11T03:03:54.380Z,21.07
2022-12-11T03:06:28.040Z,19.87
2022-12-11T03:08:56.824Z,19.40
2022-12-11T03:11:25.350Z,19.53
2022-12-11T03:13:55.296Z,18.30
2022-12-11T03:16:32.608Z,19.53
2022-12-11T03:19:12.219Z,18.07
2022-12-11T03:21:47.091Z,18.07
2022-12-11T03:24:21.770Z,15.63
2022-12-11T03:26:56.839Z,17.40
2022-12-11T03:29:29.658Z,15.80
2022-12-11T03:32:03.477Z,14.67
2022-12-11T03:34:37.077Z,13.60
2022-12-11T03:37:08.348Z,17.60
2022-12-11T03:39:41.767Z,15.03
2022-12-11T03:42:13.600Z,18.70
2022-12-11T03:44:44.549Z,16.57
2022-12-11T03:47:16.502Z,16.83
2022-12-11T03:49:47.445Z,17.37
2022-12-11T03:52:17.366Z,14.47
2022-12-11T03:54:49.068Z,19.70
2022-12-11T03:57:20.865Z,17.50
2022-12-11T03:59:49.647Z,16.10
2022-12-11T04:02:18.036Z,18.10
2022-12-11T04:04:48.129Z,20.23
2022-12-11T04:07:16.735Z,18.60
2022-12-11T04:09:45.050Z,18.87
2022-12-11T04:12:13.431Z,24.40
2022-12-11T04:14:58.862Z,24.40
2022-12-11T04:17:44.344Z,18.67
2022-12-11T04:20:31.286Z,18.43
2022-12-11T04:23:16.837Z,22.17
2022-12-11T04:25:45.151Z,20.37
2022-12-11T04:28:13.396Z,21.67
2022-12-11T04:30:41.938Z,20.23
2022-12-11T04:33:10.372Z,21.30
2022-12-11T04:35:40.267Z,19.30
2022-12-11T04:38:08.855Z,19.70
2022-12-11T04:40:37.067Z,19.20
2022-12-11T04:43:05.501Z,21.93
2022-12-11T04:45:33.985Z,23.40
2022-12-11T04:48:02.327Z,20.83
2022-12-11T04:50:30.664Z,21.03
2022-12-11T04:53:00.667Z,23.60
2022-12-11T04:55:33.592Z,22.13
2022-12-11T04:58:03.707Z,19.70
2022-12-11T05:00:35.580Z,21.13
2022-12-11T05:03:08.175Z,21.30
2022-12-11T05:05:39.575Z,24.60
2022-12-11T05:12:16.188Z,21.37
2022-12-11T05:14:53.355Z,23.20
2022-12-11T05:17:36.469Z,20.93
2022-12-11T05:20:11.419Z,39.97
2022-12-11T05:22:43.628Z,25.27
2022-12-11T05:25:19.438Z,23.00
2022-12-11T05:27:56.243Z,24.50
2022-12-11T05:30:37.732Z,20.00
2022-12-11T05:33:26.260Z,24.47
2022-12-11T05:36:47.478Z,28.63
2022-12-11T05:39:44.971Z,26.10
2022-12-11T05:42:34.726Z,22.20
2022-12-11T05:45:07.275Z,20.37
2022-12-11T05:47:41.954Z,23.60
2022-12-11T05:50:14.584Z,23.77
2022-12-11T05:52:59.563Z,22.10
2022-12-11T05:56:36.850Z,23.80
2022-12-11T06:03:44.446Z,19.80
2022-12-11T06:07:05.910Z,21.50
2022-12-11T06:17:21.606Z,19.43
2022-12-11T06:20:36.354Z,22.07
2022-12-11T06:26:39.211Z,21.13
2022-12-11T06:40:43.099Z,18.77
2022-12-11T06:43:30.576Z,22.10
2022-12-11T06:57:29.829Z,19.07
2022-12-11T07:33:19.824Z,18.83
2022-12-11T07:36:13.199Z,19.30
2022-12-11T07:42:34.940Z,19.13
2022-12-11T07:46:00.301Z,15.27
2022-12-11T07:52:41.907Z,20.00
2022-12-11T08:03:23.399Z,19.40
2022-12-11T08:05:52.594Z,19.13
2022-12-11T08:08:20.951Z,18.53
2022-12-11T08:10:50.475Z,19.20
2022-12-11T08:13:18.458Z,16.70
2022-12-11T08:15:46.493Z,20.70
2022-12-11T08:18:14.555Z,16.30
2022-12-11T08:20:42.609Z,16.43
2022-12-11T08:23:10.626Z,26.83
2022-12-11T08:25:39.059Z,21.53
2022-12-11T08:28:08.538Z,18.70
2022-12-11T08:30:36.723Z,16.73
2022-12-11T08:33:04.962Z,16.37
2022-12-11T08:35:32.959Z,16.80
2022-12-11T08:38:00.982Z,19.07
2022-12-11T08:40:29.080Z,17.67
2022-12-11T08:42:57.204Z,20.10
2022-12-11T08:45:27.210Z,20.73
2022-12-11T08:47:55.579Z,15.23
2022-12-11T08:50:23.721Z,19.40
2022-12-11T08:52:51.907Z,17.63
2022-12-11T08:55:20.025Z,14.03
2022-12-11T08:57:48.083Z,20.13
2022-12-11T09:00:17.461Z,19.60
2022-12-11T09:02:48.004Z,19.50
2022-12-11T09:05:16.726Z,21.47
2022-12-11T09:07:45.287Z,17.53
2022-12-11T09:10:13.433Z,18.77
2022-12-11T09:12:41.555Z,17.40
2022-12-11T09:15:10.516Z,19.10
2022-12-11T09:17:38.795Z,18.23
2022-12-11T09:20:09.678Z,20.50
2022-12-11T09:22:37.782Z,16.80
2022-12-11T09:25:06.589Z,15.70
2022-12-11T09:27:35.739Z,17.50
2022-12-11T09:30:03.821Z,16.37
2022-12-11T09:32:31.947Z,20.40
2022-12-11T09:34:59.936Z,18.87
2022-12-11T09:37:29.359Z,16.07
2022-12-11T09:40:00.253Z,17.83
2022-12-11T09:42:43.855Z,17.27
2022-12-11T09:45:16.234Z,18.87
2022-12-11T09:47:46.122Z,18.70
2022-12-11T09:50:18.106Z,19.10
2022-12-11T09:52:59.054Z,18.00
2022-12-11T09:55:33.457Z,21.73
2022-12-11T09:58:08.105Z,17.60
2022-12-11T10:00:41.799Z,18.23
2022-12-11T10:03:44.335Z,23.40
2022-12-11T10:06:20.688Z,14.20
2022-12-11T10:09:01.961Z,17.70
2022-12-11T10:11:54.564Z,19.30
2022-12-11T10:14:33.747Z,15.27
2022-12-11T10:17:08.947Z,18.70
2022-12-11T10:19:37.463Z,16.90
2022-12-11T10:22:05.832Z,13.90
2022-12-11T10:25:10.046Z,15.97
2022-12-11T10:27:32.434Z,19.07
2022-12-11T10:30:09.446Z,16.50
2022-12-11T10:32:49.277Z,14.27
2022-12-11T10:35:25.639Z,17.07
2022-12-11T10:37:56.844Z,23.93
2022-12-11T10:40:27.126Z,18.23
2022-12-11T10:42:58.754Z,16.73
2022-12-11T10:45:26.953Z,14.77
2022-12-11T10:48:04.090Z,13.33
2022-12-11T10:50:32.640Z,17.80
2022-12-11T10:53:01.627Z,17.10
2022-12-11T10:55:39.600Z,17.60
2022-12-11T10:58:08.101Z,15.53
2022-12-11T11:00:38.544Z,15.37
2022-12-11T11:03:07.692Z,13.77
2022-12-11T11:05:38.152Z,25.03
2022-12-11T11:08:16.086Z,17.77
2022-12-11T11:10:57.340Z,16.07
2022-12-11T11:13:27.514Z,16.50
2022-12-11T11:16:01.939Z,16.20
2022-12-11T11:18:32.087Z,17.63
2022-12-11T11:21:01.299Z,20.77
2022-12-11T11:23:30.622Z,16.30
2022-12-11T11:26:10.293Z,17.53
2022-12-11T11:29:04.685Z,17.73
2022-12-11T11:31:35.103Z,16.43
2022-12-11T11:34:07.954Z,14.77
2022-12-11T11:36:37.811Z,13.83
2022-12-11T11:39:21.027Z,14.83
2022-12-11T11:41:56.035Z,11.07
2022-12-11T11:44:30.045Z,18.00
2022-12-11T11:47:03.629Z,15.20
2022-12-11T11:49:46.920Z,15.00
2022-12-11T11:52:21.898Z,14.00
2022-12-11T11:54:55.969Z,15.20
2022-12-11T11:57:46.749Z,13.40
2022-12-11T12:00:21.489Z,16.47
2022-12-11T12:02:51.608Z,11.97
2022-12-11T12:05:27.042Z,17.43
2022-12-11T12:08:04.883Z,14.97
2022-12-11T12:10:40.381Z,15.43
2022-12-11T12:13:44.794Z,14.17
2022-12-11T12:16:43.824Z,22.50
2022-12-11T12:19:08.377Z,12.10
2022-12-11T12:21:39.032Z,14.93
2022-12-11T12:24:30.697Z,13.23
2022-12-11T12:27:17.616Z,12.60
2022-12-11T12:30:01.795Z,15.60
2022-12-11T12:32:39.680Z,14.60
2022-12-11T12:35:17.475Z,16.00
2022-12-11T12:37:58.563Z,21.83
2022-12-11T12:40:32.906Z,12.50
2022-12-11T12:43:12.308Z,15.53
2022-12-11T12:45:50.864Z,12.50
2022-12-11T12:48:19.309Z,12.23
2022-12-11T12:50:50.578Z,12.00
2022-12-11T12:53:21.703Z,17.00
2022-12-11T12:55:51.008Z,14.70
2022-12-11T12:58:32.295Z,15.03
2022-12-11T13:01:12.075Z,16.13
2022-12-11T13:03:52.343Z,11.40
2022-12-11T13:06:35.894Z,15.10
2022-12-11T13:09:19.379Z,15.47
2022-12-11T13:11:50.148Z,12.30
2022-12-11T13:14:31.623Z,19.03
2022-12-11T13:17:26.256Z,12.53
2022-12-11T13:20:35.124Z,16.33
2022-12-11T13:23:18.832Z,14.53
2022-12-11T13:26:06.329Z,13.43
2022-12-11T13:35:18.856Z,11.73
2022-12-11T13:37:51.769Z,13.70
2022-12-11T13:40:26.895Z,14.10
2022-12-11T13:42:58.292Z,13.30
2022-12-11T13:45:31.011Z,12.43
2022-12-11T13:48:03.244Z,12.57
2022-12-11T13:50:34.371Z,13.13
2022-12-11T13:53:05.043Z,12.20
2022-12-11T13:55:36.332Z,9.20
2022-12-11T13:58:04.703Z,10.50
2022-12-11T14:00:33.746Z,6.87
2022-12-11T14:03:07.568Z,11.30
2022-12-11T14:05:36.554Z,8.43
2022-12-11T14:08:10.888Z,10.00
2022-12-11T14:10:41.458Z,11.37
2022-12-11T14:13:21.704Z,12.07
2022-12-11T14:15:50.785Z,11.60
2022-12-11T14:18:23.967Z,12.20
2022-12-11T14:20:57.005Z,13.90
2022-12-11T14:23:27.667Z,11.70
2022-12-11T14:26:04.009Z,11.23
2022-12-11T14:28:38.983Z,11.50
2022-12-11T14:31:07.991Z,9.17
2022-12-11T14:33:43.591Z,12.33
2022-12-11T14:36:12.310Z,12.93
2022-12-11T14:38:46.438Z,8.80
2022-12-11T14:41:19.590Z,10.80
2022-12-11T14:43:51.656Z,11.90
2022-12-11T14:46:26.285Z,13.10
2022-12-11T14:49:01.518Z,14.07
2022-12-11T14:51:34.926Z,18.83
2022-12-11T14:54:04.831Z,11.13
2022-12-11T14:56:33.738Z,10.23
2022-12-11T14:59:26.909Z,10.90
2022-12-11T15:02:04.006Z,11.60
2022-12-11T15:04:37.381Z,13.97
2022-12-11T15:10:04.007Z,10.40
2022-12-11T15:12:32.653Z,14.00
2022-12-11T15:15:04.227Z,12.10
2022-12-11T15:17:34.627Z,9.13
2022-12-11T15:20:08.814Z,12.60
2022-12-11T15:22:37.289Z,11.93
2022-12-11T15:25:06.232Z,11.20
2022-12-11T15:27:37.004Z,12.83
2022-12-11T15:30:27.129Z,13.80
2022-12-11T15:33:16.501Z,12.03
2022-12-11T15:35:59.290Z,11.63
2022-12-11T15:38:37.691Z,11.00
2022-12-11T15:41:07.211Z,14.60
2022-12-11T15:43:38.579Z,10.53
2022-12-11T15:46:07.608Z,13.57
2022-12-11T15:48:35.753Z,15.90
2022-12-11T15:51:05.512Z,13.13
2022-12-11T15:53:33.639Z,12.70
2022-12-11T15:56:02.167Z,11.77
2022-12-11T15:58:31.036Z,12.90
2022-12-11T16:01:00.080Z,13.60
2022-12-11T16:03:28.143Z,14.20
2022-12-11T16:05:56.168Z,11.23
2022-12-11T16:08:25.908Z,12.40
2022-12-11T16:10:55.408Z,13.60
2022-12-11T16:13:23.951Z,13.73
2022-12-11T16:15:53.805Z,12.80
2022-12-11T16:18:23.911Z,13.50
2022-12-11T16:20:53.039Z,13.40
2022-12-11T16:23:21.453Z,14.47
2022-12-11T16:25:51.318Z,14.73
2022-12-11T16:28:21.579Z,11.90
2022-12-11T16:30:49.829Z,10.93
2022-12-11T16:33:19.441Z,17.50
2022-12-11T16:35:50.730Z,13.00
2022-12-11T16:38:18.913Z,18.00
2022-12-11T16:40:47.001Z,14.27
2022-12-11T16:43:16.702Z,15.17
2022-12-11T16:45:44.742Z,15.20
2022-12-11T16:48:12.809Z,18.30
2022-12-11T16:50:41.567Z,18.27
2022-12-11T16:53:09.683Z,17.80
2022-12-11T16:55:40.489Z,14.73
2022-12-11T16:58:09.585Z,19.53
2022-12-11T17:00:39.990Z,15.97
2022-12-11T17:03:08.131Z,19.10
2022-12-11T17:05:36.165Z,13.10
2022-12-11T17:08:04.432Z,15.97
2022-12-11T17:10:35.691Z,14.30
2022-12-11T17:13:03.759Z,11.90
2022-12-11T17:15:32.141Z,22.77
2022-12-11T17:18:01.607Z,19.83
2022-12-11T17:20:29.949Z,15.93
2022-12-11T17:22:58.449Z,17.07
2022-12-11T17:25:26.546Z,16.33
2022-12-11T17:27:55.049Z,13.70
2022-12-11T17:30:23.889Z,15.83
2022-12-11T17:32:52.018Z,15.80
2022-12-11T17:35:21.560Z,13.87
2022-12-11T17:37:49.503Z,16.33
2022-12-11T17:40:18.920Z,15.55
2022-12-11T17:42:47.560Z,19.23
2022-12-11T17:45:15.638Z,14.47
2022-12-11T17:47:43.684Z,17.20
2022-12-11T17:50:12.974Z,19.53
2022-12-11T17:52:44.361Z,19.80
2022-12-11T17:55:13.040Z,15.33
2022-12-11T17:57:41.351Z,15.70
2022-12-11T18:00:10.950Z,14.33
2022-12-11T18:02:39.404Z,17.77
2022-12-11T18:05:07.993Z,17.20
2022-12-11T18:07:37.940Z,15.50
2022-12-11T18:10:08.317Z,17.83
2022-12-11T18:12:40.282Z,22.30
2022-12-11T18:15:10.905Z,17.90
2022-12-11T18:17:39.199Z,16.73
2022-12-11T18:20:08.177Z,21.40
2022-12-11T18:22:36.264Z,18.80
2022-12-11T18:25:09.509Z,19.70
2022-12-11T18:27:40.162Z,19.47
2022-12-11T18:30:09.444Z,23.20
2022-12-11T18:32:37.509Z,18.50
2022-12-11T18:35:06.164Z,21.27
2022-12-11T18:37:34.473Z,18.57
2022-12-11T18:40:02.617Z,22.63
2022-12-11T18:42:33.439Z,21.23
2022-12-11T18:45:03.686Z,17.13
2022-12-11T18:47:31.896Z,21.80
2022-12-11T18:50:05.559Z,21.23
2022-12-11T18:52:35.962Z,18.00
2022-12-11T18:55:04.555Z,25.83
2022-12-11T18:57:33.283Z,18.57
2022-12-11T19:00:08.445Z,22.60
2022-12-11T19:02:36.730Z,21.83
2022-12-11T19:05:05.313Z,21.67
2022-12-11T19:07:33.547Z,22.60
2022-12-11T19:10:01.556Z,21.77
2022-12-11T19:12:29.832Z,21.60
2022-12-11T19:14:57.905Z,26.37
2022-12-11T19:17:27.666Z,24.43
2022-12-11T19:19:55.756Z,22.63
2022-12-11T19:22:23.879Z,29.97
2022-12-11T19:24:52.164Z,21.03
2022-12-11T19:27:20.426Z,24.33
2022-12-11T19:29:48.574Z,21.17
2022-12-11T19:32:16.710Z,21.70
2022-12-11T19:34:46.164Z,22.40
2022-12-11T19:37:14.655Z,24.37
2022-12-11T19:39:45.031Z,20.30
2022-12-11T19:42:13.027Z,21.27
2022-12-11T19:44:41.232Z,23.13
2022-12-11T19:47:09.544Z,22.37
2022-12-11T19:49:38.025Z,20.97
2022-12-11T19:52:07.980Z,27.60
2022-12-11T19:54:36.704Z,27.13
2022-12-11T19:57:05.042Z,27.27
2022-12-11T19:59:33.132Z,23.20
2022-12-11T20:02:01.336Z,20.50
2022-12-11T20:04:29.496Z,22.20
2022-12-11T20:06:57.819Z,22.13
2022-12-11T20:09:27.469Z,23.70
2022-12-11T20:11:55.724Z,22.47
2022-12-11T20:14:25.756Z,22.37
2022-12-11T20:17:12.139Z,27.03
2022-12-11T20:19:41.638Z,24.57
2022-12-11T20:22:10.176Z,24.07
2022-12-11T20:24:39.652Z,23.53
2022-12-11T20:27:07.728Z,24.00
2022-12-11T20:29:35.844Z,24.77
2022-12-11T20:32:07.487Z,25.43
2022-12-11T20:34:35.618Z,24.20
2022-12-11T20:37:03.794Z,24.33
2022-12-11T20:39:42.437Z,25.20
2022-12-11T20:42:11.863Z,25.33
2022-12-11T20:44:44.177Z,25.90
2022-12-11T20:47:16.884Z,22.07
2022-12-11T20:49:45.003Z,25.30
2022-12-11T20:52:13.479Z,23.17
2022-12-11T20:54:42.979Z,29.67
2022-12-11T20:57:11.389Z,23.60
2022-12-11T20:59:39.477Z,23.20
2022-12-11T21:02:08.584Z,26.80
2022-12-11T21:04:41.032Z,22.70
2022-12-11T21:07:10.378Z,22.57
2022-12-11T21:09:43.137Z,20.70
2022-12-11T21:12:11.360Z,22.67
2022-12-11T21:14:39.417Z,21.30
2022-12-11T21:17:07.485Z,24.33
2022-12-11T21:19:35.661Z,25.50
2022-12-11T21:22:03.776Z,22.33
2022-12-11T21:24:32.389Z,25.87
2022-12-11T21:27:01.937Z,26.90
2022-12-11T21:29:30.504Z,22.57
2022-12-11T21:31:59.037Z,26.37
2022-12-11T21:34:27.632Z,28.13
2022-12-11T21:36:57.083Z,28.83
2022-12-11T21:39:29.543Z,21.37
2022-12-11T21:42:00.516Z,25.90
2022-12-11T21:47:18.331Z,22.13
2022-12-11T21:49:46.370Z,21.00
2022-12-11T21:52:15.264Z,27.30
2022-12-11T21:54:43.476Z,20.37
2022-12-11T21:57:11.499Z,25.37
2022-12-11T21:59:41.012Z,25.40
2022-12-11T22:02:11.815Z,25.77
2022-12-11T22:04:40.178Z,23.77
2022-12-11T22:07:08.636Z,26.03
2022-12-11T22:09:36.798Z,26.87
2022-12-11T22:12:05.256Z,21.67
2022-12-11T22:14:33.347Z,20.13
2022-12-11T22:17:02.885Z,21.50
2022-12-11T22:19:32.841Z,24.77
2022-12-11T22:22:01.087Z,25.33
2022-12-11T22:24:29.083Z,24.10
2022-12-11T22:26:57.046Z,26.90
2022-12-11T22:29:25.258Z,23.40
2022-12-11T22:31:54.480Z,27.40
2022-12-11T22:34:23.957Z,22.93
2022-12-11T22:36:52.759Z,26.33
2022-12-11T22:39:20.853Z,25.83
2022-12-11T22:41:48.914Z,26.73
2022-12-11T22:44:22.921Z,24.20
2022-12-11T22:46:51.312Z,23.70
2022-12-11T22:49:19.876Z,24.10
2022-12-11T22:51:49.403Z,22.83
2022-12-11T22:54:17.690Z,20.90
2022-12-11T22:56:45.721Z,24.03
2022-12-11T22:59:13.716Z,28.40
2022-12-11T23:01:41.886Z,20.40
2022-12-11T23:04:10.336Z,23.53
2022-12-11T23:06:38.518Z,24.47
2022-12-11T23:09:08.357Z,22.10
2022-12-11T23:11:38.673Z,23.73
2022-12-11T23:14:08.913Z,23.70
2022-12-11T23:16:37.071Z,23.17
2022-12-11T23:19:05.351Z,25.73
2022-12-11T23:21:33.699Z,26.50
2022-12-11T23:24:02.119Z,22.30
2022-12-11T23:26:31.752Z,23.00
2022-12-11T23:29:00.624Z,22.80
2022-12-11T23:31:30.049Z,23.80
2022-12-11T23:33:58.570Z,27.03
2022-12-11T23:36:27.674Z,26.43
2022-12-11T23:38:56.369Z,22.10
2022-12-11T23:41:24.745Z,26.43
2022-12-11T23:43:54.164Z,22.53
2022-12-11T23:46:24.336Z,25.47
2022-12-11T23:48:53.744Z,22.63
2022-12-11T23:51:23.998Z,25.73
2022-12-11T23:53:52.881Z,27.33
2022-12-11T23:56:24.198Z,26.30
2022-12-11T23:58:54.375Z,22.93
